createdAt,value
2023-05-09T00:01:11.743Z,62.04
2023-05-09T00:03:44.187Z,61.92
2023-05-09T00:06:17.440Z,61.43
2023-05-09T00:08:49.260Z,61.68
2023-05-09T00:11:21.876Z,61.79
2023-05-09T00:13:53.646Z,61.98
2023-05-09T00:16:25.395Z,62.01
2023-05-09T00:18:57.916Z,62.18
2023-05-09T00:21:30.302Z,62.28
2023-05-09T00:24:02.089Z,62.18
2023-05-09T00:26:33.907Z,61.85
2023-05-09T00:29:06.040Z,61.79
2023-05-09T00:31:37.928Z,61.82
2023-05-09T00:34:09.688Z,62.03
2023-05-09T00:36:41.978Z,61.79
2023-05-09T00:39:14.260Z,62.12
2023-05-09T00:41:45.965Z,62.01
2023-05-09T00:44:17.786Z,62.38
2023-05-09T00:46:49.584Z,62.31
2023-05-09T00:49:21.854Z,62.75
2023-05-09T00:51:55.548Z,62.86
2023-05-09T00:54:27.626Z,62.62
2023-05-09T00:56:59.307Z,62.57
2023-05-09T00:59:31.042Z,62.81
2023-05-09T01:02:02.815Z,63.07
2023-05-09T01:04:34.820Z,63.78
2023-05-09T01:07:12.544Z,63.91
2023-05-09T01:09:52.588Z,64.06
2023-05-09T01:12:32.496Z,63.71
2023-05-09T01:15:11.720Z,64.15
2023-05-09T01:17:51.072Z,63.90
2023-05-09T01:20:30.534Z,64.00
2023-05-09T01:23:20.789Z,63.92
2023-05-09T01:26:03.046Z,63.70
2023-05-09T01:29:03.469Z,63.58
2023-05-09T01:31:39.230Z,63.87
2023-05-09T01:34:15.296Z,63.71
2023-05-09T01:36:51.040Z,63.55
2023-05-09T01:39:25.449Z,64.00
2023-05-09T01:42:01.985Z,64.41
2023-05-09T01:44:38.277Z,64.81
2023-05-09T01:47:10.679Z,64.30
2023-05-09T01:49:44.501Z,64.51
2023-05-09T01:52:20.086Z,64.64
2023-05-09T01:54:53.721Z,64.92
2023-05-09T01:57:27.063Z,65.03
2023-05-09T02:00:00.746Z,64.80
2023-05-09T02:02:33.656Z,64.80
2023-05-09T02:05:06.292Z,64.86
2023-05-09T02:07:39.332Z,65.12
2023-05-09T02:10:13.071Z,65.77
2023-05-09T02:12:46.424Z,65.52
2023-05-09T02:15:19.148Z,65.51
2023-05-09T02:17:50.950Z,65.46
2023-05-09T02:20:23.025Z,65.15
2023-05-09T02:22:55.409Z,65.11
2023-05-09T02:25:27.115Z,65.29
2023-05-09T02:28:00.063Z,65.88
2023-05-09T02:30:37.750Z,65.46
2023-05-09T02:33:12.711Z,65.81
2023-05-09T02:35:47.484Z,66.10
2023-05-09T02:38:19.559Z,66.43
2023-05-09T02:40:52.828Z,66.67
2023-05-09T02:43:24.523Z,67.00
2023-05-09T02:45:56.359Z,66.56
2023-05-09T02:48:28.049Z,66.57
2023-05-09T02:50:59.828Z,66.32
2023-05-09T02:53:31.513Z,66.00
2023-05-09T02:56:03.916Z,65.72
2023-05-09T02:58:35.707Z,65.63
2023-05-09T03:01:07.696Z,65.71
2023-05-09T03:03:39.561Z,65.93
2023-05-09T03:06:11.875Z,66.32
2023-05-09T03:08:43.702Z,67.06
2023-05-09T03:11:15.736Z,67.01
2023-05-09T03:13:47.823Z,66.83
2023-05-09T03:16:21.117Z,66.50
2023-05-09T03:18:53.161Z,66.80
2023-05-09T03:21:25.001Z,67.33
2023-05-09T03:23:56.916Z,67.27
2023-05-09T03:26:28.702Z,67.41
2023-05-09T03:29:00.527Z,67.14
2023-05-09T03:31:32.759Z,67.23
2023-05-09T03:34:04.599Z,67.52
2023-05-09T03:36:36.276Z,67.94
2023-05-09T03:39:09.933Z,67.91
2023-05-09T03:41:44.100Z,67.21
2023-05-09T03:44:15.962Z,67.57
2023-05-09T03:46:47.717Z,67.29
2023-05-09T03:49:19.599Z,66.84
2023-05-09T03:51:51.996Z,67.30
2023-05-09T03:54:23.798Z,67.29
2023-05-09T03:56:56.047Z,66.54
2023-05-09T03:59:28.234Z,66.33
2023-05-09T04:02:00.679Z,66.29
2023-05-09T04:04:32.900Z,65.99
2023-05-09T04:07:04.053Z,65.75
2023-05-09T04:09:36.192Z,65.66
2023-05-09T04:12:08.718Z,65.59
2023-05-09T04:14:40.852Z,65.53
2023-05-09T04:17:12.758Z,65.13
2023-05-09T04:19:44.535Z,64.96
2023-05-09T04:22:16.307Z,65.27
2023-05-09T04:24:48.227Z,65.32
2023-05-09T04:27:20.009Z,65.42
2023-05-09T04:29:53.546Z,64.94
2023-05-09T04:32:26.962Z,65.31
2023-05-09T04:34:59.654Z,65.04
2023-05-09T04:37:34.582Z,64.82
2023-05-09T04:40:09.129Z,64.61
2023-05-09T04:42:45.230Z,64.39
2023-05-09T04:45:17.243Z,64.19
2023-05-09T04:47:49.291Z,64.19
2023-05-09T04:50:21.110Z,64.28
2023-05-09T04:52:53.392Z,63.84
2023-05-09T04:55:26.291Z,63.48
2023-05-09T04:57:58.640Z,63.46
2023-05-09T05:00:31.092Z,63.70
2023-05-09T05:03:03.452Z,62.78
2023-05-09T05:05:37.421Z,62.75
2023-05-09T05:08:10.220Z,62.33
2023-05-09T05:10:43.980Z,62.04
2023-05-09T05:13:17.470Z,62.38
2023-05-09T05:15:51.763Z,62.05
2023-05-09T05:18:25.019Z,61.85
2023-05-09T05:20:56.936Z,62.20
2023-05-09T05:23:28.784Z,62.25
2023-05-09T05:26:00.893Z,61.97
2023-05-09T05:28:33.068Z,61.97
2023-05-09T05:31:05.010Z,62.60
2023-05-09T05:33:37.374Z,62.31
2023-05-09T05:36:08.917Z,62.37
2023-05-09T05:38:40.735Z,62.39
2023-05-09T05:41:12.951Z,62.36
2023-05-09T05:43:45.385Z,62.35
2023-05-09T05:46:18.856Z,62.61
2023-05-09T05:48:51.138Z,62.19
2023-05-09T05:51:22.940Z,61.59
2023-05-09T05:53:54.666Z,61.97
2023-05-09T05:56:27.618Z,61.77
2023-05-09T05:59:00.794Z,61.20
2023-05-09T06:01:33.112Z,60.67
2023-05-09T06:04:05.059Z,59.94
2023-05-09T06:06:38.193Z,60.01
2023-05-09T06:09:10.038Z,60.98
2023-05-09T06:11:41.743Z,61.20
2023-05-09T06:14:13.601Z,60.45
2023-05-09T06:16:45.818Z,59.70
2023-05-09T06:19:17.542Z,59.83
2023-05-09T06:21:49.281Z,60.04
2023-05-09T06:24:34.633Z,59.12
2023-05-09T06:27:08.636Z,58.22
2023-05-09T06:29:40.724Z,58.09
2023-05-09T06:32:12.442Z,57.49
2023-05-09T06:34:44.140Z,57.33
2023-05-09T06:37:15.861Z,56.99
2023-05-09T06:39:47.596Z,57.27
2023-05-09T06:42:19.249Z,57.32
2023-05-09T06:44:51.597Z,57.11
2023-05-09T06:47:23.398Z,57.35
2023-05-09T06:49:55.710Z,56.81
2023-05-09T06:52:27.482Z,55.97
2023-05-09T06:54:59.744Z,54.92
2023-05-09T06:57:31.657Z,54.71
2023-05-09T07:00:04.866Z,54.40
2023-05-09T07:02:37.078Z,53.43
2023-05-09T07:05:11.012Z,53.30
2023-05-09T07:07:43.010Z,53.08
2023-05-09T07:10:15.414Z,52.84
2023-05-09T07:12:47.175Z,52.67
2023-05-09T07:15:32.475Z,52.16
2023-05-09T07:18:09.204Z,51.90
2023-05-09T07:20:41.374Z,52.62
2023-05-09T07:23:13.213Z,52.77
2023-05-09T07:25:45.349Z,53.14
2023-05-09T07:28:17.135Z,52.44
2023-05-09T07:30:49.195Z,51.52
2023-05-09T07:33:21.375Z,50.51
2023-05-09T07:35:53.991Z,50.93
2023-05-09T07:38:26.375Z,51.29
2023-05-09T07:40:58.101Z,51.08
2023-05-09T07:43:29.963Z,50.29
2023-05-09T07:46:02.021Z,49.65
2023-05-09T07:48:33.838Z,49.25
2023-05-09T07:51:05.764Z,49.21
2023-05-09T07:53:37.534Z,48.96
2023-05-09T07:56:09.450Z,48.85
2023-05-09T07:58:41.196Z,48.24
2023-05-09T08:01:13.068Z,47.94
2023-05-09T08:03:45.185Z,46.24
2023-05-09T08:06:17.056Z,46.01
2023-05-09T08:08:49.647Z,46.03
2023-05-09T08:11:21.458Z,46.04
2023-05-09T08:13:53.702Z,46.02
2023-05-09T08:16:25.602Z,46.41
2023-05-09T08:18:58.051Z,46.12
2023-05-09T08:21:30.256Z,46.11
2023-05-09T08:24:02.010Z,46.01
2023-05-09T08:26:34.001Z,45.79
2023-05-09T08:29:05.913Z,45.89
2023-05-09T08:31:38.248Z,45.97
2023-05-09T08:34:10.535Z,46.12
2023-05-09T08:36:45.544Z,45.67
2023-05-09T08:39:17.592Z,44.72
2023-05-09T08:41:49.432Z,44.10
2023-05-09T08:44:23.420Z,44.39
2023-05-09T08:47:01.986Z,45.01
2023-05-09T08:49:34.590Z,44.44
2023-05-09T08:52:07.198Z,43.93
2023-05-09T08:54:37.526Z,43.95
2023-05-09T08:57:10.046Z,43.65
2023-05-09T08:59:43.396Z,43.45
2023-05-09T09:02:17.406Z,43.72
2023-05-09T09:04:50.082Z,44.19
2023-05-09T09:07:23.708Z,44.07
2023-05-09T09:09:56.760Z,44.00
2023-05-09T09:12:28.963Z,44.54
2023-05-09T09:15:05.875Z,43.48
2023-05-09T09:17:42.056Z,43.82
2023-05-09T09:20:17.444Z,42.67
2023-05-09T09:22:52.964Z,41.95
2023-05-09T09:25:24.631Z,41.55
2023-05-09T09:27:56.472Z,41.95
2023-05-09T09:30:29.287Z,40.32
2023-05-09T09:33:02.640Z,40.16
2023-05-09T09:35:43.491Z,40.54
2023-05-09T09:38:15.772Z,40.75
2023-05-09T09:40:56.052Z,40.51
2023-05-09T09:43:32.204Z,40.37
2023-05-09T09:46:05.899Z,39.34
2023-05-09T09:48:39.475Z,38.65
2023-05-09T09:51:12.619Z,39.42
2023-05-09T09:53:45.587Z,39.83
2023-05-09T09:56:17.271Z,38.93
2023-05-09T09:58:49.239Z,38.61
2023-05-09T10:01:21.069Z,39.03
2023-05-09T10:03:52.870Z,38.63
2023-05-09T10:06:24.553Z,38.84
2023-05-09T10:08:56.386Z,38.24
2023-05-09T10:11:28.205Z,37.89
2023-05-09T10:14:00.087Z,37.89
2023-05-09T10:16:43.174Z,37.77
2023-05-09T10:19:20.816Z,37.50
2023-05-09T10:21:55.878Z,37.38
2023-05-09T10:24:34.730Z,37.78
2023-05-09T10:27:11.038Z,36.97
2023-05-09T10:29:48.185Z,35.99
2023-05-09T10:32:25.663Z,36.17
2023-05-09T10:35:03.451Z,36.17
2023-05-09T10:37:36.460Z,35.78
2023-05-09T10:40:13.917Z,35.95
2023-05-09T10:42:46.353Z,36.84
2023-05-09T10:45:18.399Z,36.69
2023-05-09T10:47:52.934Z,36.10
2023-05-09T10:50:25.811Z,35.74
2023-05-09T10:53:16.992Z,34.80
2023-05-09T10:55:55.417Z,34.40
2023-05-09T10:58:33.520Z,34.77
2023-05-09T11:01:06.112Z,33.98
2023-05-09T11:03:57.923Z,34.52
2023-05-09T11:06:51.259Z,33.58
2023-05-09T11:09:36.219Z,33.60
2023-05-09T11:12:16.239Z,33.09
2023-05-09T11:14:50.182Z,33.68
2023-05-09T11:17:32.640Z,33.40
2023-05-09T11:20:06.660Z,33.89
2023-05-09T11:22:43.620Z,33.37
2023-05-09T11:25:17.006Z,33.65
2023-05-09T11:27:51.999Z,33.70
2023-05-09T11:30:24.147Z,33.53
2023-05-09T11:32:58.904Z,33.76
2023-05-09T11:35:31.334Z,32.63
2023-05-09T11:38:05.862Z,32.77
2023-05-09T11:40:38.259Z,31.67
2023-05-09T11:43:10.406Z,32.26
2023-05-09T11:45:44.142Z,32.21
2023-05-09T11:48:16.625Z,31.91
2023-05-09T11:50:50.090Z,32.46
2023-05-09T11:53:21.926Z,32.44
2023-05-09T11:55:55.563Z,33.75
2023-05-09T11:58:27.560Z,34.39
2023-05-09T12:01:00.053Z,34.48
2023-05-09T12:03:30.911Z,35.82
2023-05-09T12:06:03.426Z,34.20
2023-05-09T12:08:36.620Z,33.72
2023-05-09T12:11:13.917Z,33.04
2023-05-09T12:13:51.046Z,31.86
2023-05-09T12:16:23.196Z,32.64
2023-05-09T12:18:55.389Z,32.24
2023-05-09T12:21:28.438Z,32.44
2023-05-09T12:24:00.519Z,32.64
2023-05-09T12:26:33.016Z,32.55
2023-05-09T12:29:05.103Z,32.11
2023-05-09T12:31:37.277Z,31.54
2023-05-09T12:34:09.919Z,31.73
2023-05-09T12:36:50.422Z,32.56
2023-05-09T12:39:24.412Z,32.40
2023-05-09T12:42:01.707Z,33.20
2023-05-09T12:44:34.252Z,32.60
2023-05-09T12:47:06.642Z,33.93
2023-05-09T12:49:39.254Z,32.32
2023-05-09T12:52:17.391Z,32.25
2023-05-09T12:54:50.288Z,32.12
2023-05-09T12:57:28.790Z,32.24
2023-05-09T13:00:03.262Z,32.31
2023-05-09T13:02:39.145Z,31.66
2023-05-09T13:05:15.654Z,32.54
2023-05-09T13:07:49.693Z,32.28
2023-05-09T13:10:25.248Z,31.94
2023-05-09T13:12:57.301Z,32.72
2023-05-09T13:15:29.676Z,32.62
2023-05-09T13:18:01.483Z,31.72
2023-05-09T13:20:33.700Z,31.12
2023-05-09T13:23:06.379Z,31.82
2023-05-09T13:25:38.210Z,31.35
2023-05-09T13:28:10.280Z,31.02
2023-05-09T13:30:42.144Z,31.04
2023-05-09T13:33:25.223Z,30.76
2023-05-09T13:35:58.061Z,30.78
2023-05-09T13:38:30.910Z,30.84
2023-05-09T13:41:02.921Z,30.71
2023-05-09T13:43:34.845Z,31.58
2023-05-09T13:46:06.826Z,31.20
2023-05-09T13:48:39.679Z,31.46
2023-05-09T13:51:11.622Z,30.81
2023-05-09T13:53:43.475Z,30.64
2023-05-09T13:56:15.209Z,31.35
2023-05-09T13:58:47.203Z,30.62
2023-05-09T14:01:19.392Z,30.44
2023-05-09T14:03:51.481Z,29.84
2023-05-09T14:06:23.317Z,30.21
2023-05-09T14:08:55.200Z,29.95
2023-05-09T14:11:27.274Z,30.32
2023-05-09T14:13:59.142Z,29.86
2023-05-09T14:16:31.157Z,28.89
2023-05-09T14:19:03.093Z,31.03
2023-05-09T14:21:34.877Z,29.99
2023-05-09T14:24:07.770Z,29.98
2023-05-09T14:26:39.980Z,29.72
2023-05-09T14:29:11.920Z,29.02
2023-05-09T14:31:43.974Z,29.43
2023-05-09T14:34:15.943Z,30.07
2023-05-09T14:36:48.854Z,29.05
2023-05-09T14:39:21.746Z,29.83
2023-05-09T14:41:53.669Z,30.76
2023-05-09T14:44:26.450Z,31.64
2023-05-09T14:46:59.095Z,31.02
2023-05-09T14:49:30.950Z,31.31
2023-05-09T14:52:03.572Z,31.32
2023-05-09T14:54:34.730Z,31.32
2023-05-09T14:57:07.524Z,32.78
2023-05-09T14:59:39.403Z,30.38
2023-05-09T15:02:11.424Z,32.24
2023-05-09T15:04:43.917Z,29.71
2023-05-09T15:07:15.700Z,29.41
2023-05-09T15:09:47.465Z,28.48
2023-05-09T15:12:19.350Z,28.96
2023-05-09T15:14:53.850Z,29.21
2023-05-09T15:17:26.446Z,28.44
2023-05-09T15:19:56.789Z,28.81
2023-05-09T15:22:33.550Z,28.61
2023-05-09T15:25:06.422Z,27.92
2023-05-09T15:27:38.420Z,26.51
2023-05-09T15:30:12.161Z,26.48
2023-05-09T15:32:44.187Z,26.38
2023-05-09T15:35:18.403Z,26.64
2023-05-09T15:37:50.252Z,26.33
2023-05-09T15:40:22.005Z,26.14
2023-05-09T15:42:54.019Z,25.72
2023-05-09T15:45:25.766Z,25.75
2023-05-09T15:47:57.495Z,25.89
2023-05-09T15:50:29.294Z,25.62
2023-05-09T15:53:01.070Z,25.68
2023-05-09T15:55:33.851Z,25.76
2023-05-09T15:58:06.324Z,25.92
2023-05-09T16:00:38.071Z,26.32
2023-05-09T16:03:10.952Z,26.01
2023-05-09T16:05:43.312Z,26.03
2023-05-09T16:08:17.050Z,26.05
2023-05-09T16:10:49.147Z,26.37
2023-05-09T16:13:21.420Z,25.84
2023-05-09T16:15:53.859Z,25.90
2023-05-09T16:18:24.152Z,25.58
2023-05-09T16:20:56.255Z,25.49
2023-05-09T16:23:28.088Z,25.13
2023-05-09T16:26:00.363Z,25.01
2023-05-09T16:28:32.357Z,25.16
2023-05-09T16:31:05.518Z,25.22
2023-05-09T16:33:37.442Z,24.72
2023-05-09T16:36:09.919Z,24.68
2023-05-09T16:38:41.920Z,24.60
2023-05-09T16:41:14.105Z,24.73
2023-05-09T16:43:45.864Z,25.17
2023-05-09T16:46:17.744Z,25.19
2023-05-09T16:48:51.688Z,25.99
2023-05-09T16:51:24.129Z,26.66
2023-05-09T16:53:55.873Z,27.78
2023-05-09T16:56:27.885Z,27.57
2023-05-09T16:58:59.642Z,28.34
2023-05-09T17:01:31.662Z,29.19
2023-05-09T17:04:06.495Z,28.89
2023-05-09T17:06:38.251Z,28.56
2023-05-09T17:09:10.061Z,28.85
2023-05-09T17:11:41.757Z,29.25
2023-05-09T17:14:13.573Z,29.46
2023-05-09T17:16:45.421Z,29.67
2023-05-09T17:19:18.884Z,29.80
2023-05-09T17:21:50.745Z,29.80
2023-05-09T17:24:22.531Z,30.26
2023-05-09T17:26:54.948Z,30.47
2023-05-09T17:29:29.091Z,30.45
2023-05-09T17:32:01.586Z,30.57
2023-05-09T17:34:32.327Z,30.57
2023-05-09T17:37:05.799Z,30.18
2023-05-09T17:39:38.598Z,30.29
2023-05-09T17:42:12.194Z,30.55
2023-05-09T17:44:44.602Z,30.89
2023-05-09T17:47:16.917Z,30.75
2023-05-09T17:49:48.661Z,31.26
2023-05-09T17:52:23.203Z,31.41
2023-05-09T17:54:55.165Z,31.65
2023-05-09T17:57:27.370Z,32.07
2023-05-09T18:00:00.338Z,32.17
2023-05-09T18:02:32.073Z,31.99
2023-05-09T18:05:04.844Z,32.29
2023-05-09T18:07:35.033Z,32.56
2023-05-09T18:10:08.910Z,32.41
2023-05-09T18:12:40.814Z,32.86
2023-05-09T18:15:13.040Z,33.78
2023-05-09T18:17:48.219Z,33.69
2023-05-09T18:20:20.263Z,33.82
2023-05-09T18:22:53.733Z,34.07
2023-05-09T18:25:25.605Z,34.11
2023-05-09T18:27:58.321Z,34.47
2023-05-09T18:30:29.124Z,34.31
2023-05-09T18:33:02.873Z,34.48
2023-05-09T18:35:34.908Z,34.50
2023-05-09T18:38:06.856Z,34.65
2023-05-09T18:40:38.741Z,34.99
2023-05-09T18:43:10.680Z,35.06
2023-05-09T18:45:45.088Z,34.84
2023-05-09T18:48:17.367Z,35.01
2023-05-09T18:50:52.339Z,35.04
2023-05-09T18:53:25.992Z,35.46
2023-05-09T18:55:57.788Z,35.28
2023-05-09T18:58:29.558Z,35.43
2023-05-09T19:01:02.156Z,35.57
2023-05-09T19:03:33.068Z,35.91
2023-05-09T19:06:05.569Z,36.11
2023-05-09T19:08:37.273Z,36.12
2023-05-09T19:11:09.898Z,36.76
2023-05-09T19:13:48.433Z,36.81
2023-05-09T19:16:21.766Z,36.90
2023-05-09T19:18:55.112Z,37.23
2023-05-09T19:21:25.535Z,37.39
2023-05-09T19:23:57.598Z,37.30
2023-05-09T19:26:29.291Z,37.78
2023-05-09T19:29:04.081Z,37.80
2023-05-09T19:31:37.020Z,37.91
2023-05-09T19:34:08.226Z,38.25
2023-05-09T19:36:40.165Z,38.80
2023-05-09T19:39:12.151Z,39.07
2023-05-09T19:41:44.005Z,39.00
2023-05-09T19:44:16.050Z,39.31
2023-05-09T19:46:47.927Z,39.24
2023-05-09T19:49:19.827Z,39.44
2023-05-09T19:51:51.932Z,39.45
2023-05-09T19:54:26.986Z,39.59
2023-05-09T19:56:58.746Z,39.79
2023-05-09T19:59:31.650Z,39.80
2023-05-09T20:02:03.834Z,40.25
2023-05-09T20:04:38.601Z,40.27
2023-05-09T20:07:10.435Z,40.41
2023-05-09T20:09:42.231Z,40.78
2023-05-09T20:12:14.347Z,40.78
2023-05-09T20:14:46.179Z,41.02
2023-05-09T20:17:18.407Z,41.04
2023-05-09T20:19:53.211Z,41.29
2023-05-09T20:22:25.416Z,41.58
2023-05-09T20:24:57.514Z,41.70
2023-05-09T20:27:29.367Z,42.01
2023-05-09T20:30:01.146Z,42.17
2023-05-09T20:32:33.026Z,42.19
2023-05-09T20:35:05.431Z,42.38
2023-05-09T20:37:37.684Z,42.39
2023-05-09T20:40:11.627Z,42.60
2023-05-09T20:42:43.932Z,42.59
2023-05-09T20:45:15.781Z,42.82
2023-05-09T20:47:47.642Z,42.78
2023-05-09T20:50:19.910Z,43.37
2023-05-09T20:52:51.693Z,43.52
2023-05-09T20:55:23.921Z,43.24
2023-05-09T20:57:55.750Z,43.48
2023-05-09T21:00:28.004Z,43.87
2023-05-09T21:03:00.434Z,43.71
2023-05-09T21:05:32.304Z,43.96
2023-05-09T21:08:04.223Z,43.94
2023-05-09T21:10:35.924Z,44.37
2023-05-09T21:13:09.130Z,44.04
2023-05-09T21:15:40.908Z,43.97
2023-05-09T21:18:12.730Z,44.13
2023-05-09T21:20:45.472Z,44.14
2023-05-09T21:23:18.531Z,44.29
2023-05-09T21:25:50.596Z,44.69
2023-05-09T21:28:22.386Z,44.96
2023-05-09T21:30:54.703Z,44.85
2023-05-09T21:33:27.067Z,45.19
2023-05-09T21:35:59.254Z,45.08
2023-05-09T21:38:30.998Z,45.22
2023-05-09T21:41:02.795Z,45.20
2023-05-09T21:43:34.597Z,45.57
2023-05-09T21:46:08.110Z,45.65
2023-05-09T21:48:40.535Z,45.63
2023-05-09T21:51:12.483Z,45.92
2023-05-09T21:53:44.271Z,45.83
2023-05-09T21:56:16.106Z,45.83
2023-05-09T21:58:48.227Z,45.85
2023-05-09T22:01:21.261Z,45.94
2023-05-09T22:03:53.124Z,45.96
2023-05-09T22:06:25.562Z,46.05
2023-05-09T22:08:57.415Z,46.25
2023-05-09T22:11:29.210Z,46.36
2023-05-09T22:14:01.233Z,46.80
2023-05-09T22:16:33.169Z,46.69
2023-05-09T22:19:05.427Z,46.63
2023-05-09T22:21:37.156Z,47.30
2023-05-09T22:24:12.108Z,47.37
2023-05-09T22:26:44.047Z,47.47
2023-05-09T22:29:17.620Z,47.71
2023-05-09T22:31:49.384Z,47.48
2023-05-09T22:34:21.126Z,47.43
2023-05-09T22:36:54.418Z,47.46
2023-05-09T22:39:26.790Z,47.62
2023-05-09T22:41:58.444Z,47.54
2023-05-09T22:44:30.091Z,47.70
2023-05-09T22:47:01.730Z,47.93
2023-05-09T22:49:33.851Z,48.04
2023-05-09T22:52:05.743Z,48.59
2023-05-09T22:54:37.704Z,48.40
2023-05-09T22:57:09.482Z,48.41
2023-05-09T22:59:41.203Z,48.58
2023-05-09T23:02:13.396Z,48.66
2023-05-09T23:04:45.266Z,49.18
2023-05-09T23:07:16.957Z,48.99
2023-05-09T23:09:49.268Z,49.42
2023-05-09T23:12:21.204Z,49.26
2023-05-09T23:14:52.880Z,49.37
2023-05-09T23:17:24.708Z,49.51
2023-05-09T23:19:56.447Z,49.45
2023-05-09T23:22:28.241Z,49.19
2023-05-09T23:25:00.995Z,49.67
2023-05-09T23:27:31.768Z,49.82
2023-05-09T23:30:03.427Z,49.83
2023-05-09T23:32:35.133Z,49.99
2023-05-09T23:35:07.992Z,50.59
2023-05-09T23:37:39.846Z,50.64
2023-05-09T23:40:13.927Z,50.66
2023-05-09T23:42:46.234Z,50.42
2023-05-09T23:45:17.918Z,50.63
2023-05-09T23:47:49.928Z,50.53
2023-05-09T23:50:21.976Z,50.19
2023-05-09T23:52:53.667Z,50.61
2023-05-09T23:55:25.585Z,50.95
2023-05-09T23:57:57.511Z,50.81
